To NAV CANADA Home Page Login to a new session Search on AWWS site Feedback and Comments Disclaimer Vers la page française équivalente Tips FAQ What's new on the site To the Forecasts and Observations / NOTAM section To "File a Flight Plan" website Publications and other links Update of the User's profile FIC Telephone Numbers My Weather Data Folder Route Weather Data Regional Weather Data Local Weather Data To the Forecasts and Observations / NOTAM section
Request Generated 08/22/2017 at 03:19:14 UTC . Weather information available at that time is displayed.

METAR/TAF

TALOYOAK/NU    

METAR CYYH 220300Z 16007KT 15SM FEW100 08/07 A3003 RMK AC1 SLP173=
METAR CYYH 220200Z 16006KT 15SM SCT100 08/07 A3004 RMK AS3 SLP176=
METAR CYYH 220100Z 15005KT 15SM SCT100 09/07 A3004 RMK AS3 SLP177=

TAF CYYH 212338Z 2200/2212 VRB03KT P6SM SCT120
BECMG 2201/2203 32010KT
RMK NXT FCST BY 220600Z=
Your time UTC time
Weather data provided by Environment Canada and NAV CANADA